createdAt,value
2023-01-04T00:01:04.499Z,9.50
2023-01-04T00:03:36.651Z,9.50
2023-01-04T00:06:11.695Z,9.60
2023-01-04T00:08:43.955Z,9.60
2023-01-04T00:11:18.547Z,9.60
2023-01-04T00:13:52.858Z,9.50
2023-01-04T00:16:26.203Z,9.40
2023-01-04T00:18:58.622Z,9.30
2023-01-04T00:21:31.488Z,9.30
2023-01-04T00:24:03.549Z,9.10
2023-01-04T00:26:36.208Z,9.10
2023-01-04T00:29:11.375Z,9.00
2023-01-04T00:31:44.857Z,9.00
2023-01-04T00:34:18.237Z,9.00
2023-01-04T00:36:50.213Z,9.00
2023-01-04T00:39:22.238Z,9.00
2023-01-04T00:41:59.809Z,8.90
2023-01-04T00:44:35.420Z,8.90
2023-01-04T00:47:07.383Z,8.90
2023-01-04T00:49:39.374Z,9.00
2023-01-04T00:52:11.400Z,9.00
2023-01-04T00:54:43.401Z,9.00
2023-01-04T00:57:15.371Z,9.00
2023-01-04T00:59:47.302Z,8.90
2023-01-04T01:02:19.413Z,8.90
2023-01-04T01:04:51.428Z,8.90
2023-01-04T01:07:23.343Z,8.90
2023-01-04T01:09:55.220Z,8.90
2023-01-04T01:12:27.151Z,8.90
2023-01-04T01:15:00.708Z,9.00
2023-01-04T01:17:33.661Z,9.00
2023-01-04T01:20:06.178Z,8.90
2023-01-04T01:22:38.125Z,8.90
2023-01-04T01:25:10.139Z,8.90
2023-01-04T01:27:42.128Z,8.90
2023-01-04T01:30:14.150Z,9.00
2023-01-04T01:32:46.055Z,8.90
2023-01-04T01:35:18.101Z,9.00
2023-01-04T01:37:50.051Z,9.00
2023-01-04T01:40:22.006Z,9.00
2023-01-04T01:42:54.202Z,9.00
2023-01-04T01:45:32.473Z,9.10
2023-01-04T01:48:12.433Z,9.20
2023-01-04T01:50:50.709Z,9.20
2023-01-04T01:53:25.391Z,9.20
2023-01-04T01:55:58.316Z,9.20
2023-01-04T01:58:44.167Z,9.10
2023-01-04T02:01:16.375Z,9.10
2023-01-04T02:03:48.598Z,9.00
2023-01-04T02:06:32.882Z,9.00
2023-01-04T02:09:05.265Z,9.10
2023-01-04T02:11:37.264Z,9.10
2023-01-04T02:14:28.399Z,9.00
2023-01-04T02:17:13.000Z,9.00
2023-01-04T02:20:15.770Z,9.10
2023-01-04T02:23:11.646Z,9.10
2023-01-04T02:26:08.710Z,9.10
2023-01-04T02:28:59.302Z,9.20
2023-01-04T02:31:56.965Z,9.20
2023-01-04T02:34:59.069Z,9.20
2023-01-04T02:37:58.573Z,9.10
2023-01-04T02:41:01.180Z,9.10
2023-01-04T02:44:00.435Z,9.10
2023-01-04T02:46:47.642Z,9.10
2023-01-04T02:49:38.163Z,9.10
2023-01-04T02:52:10.344Z,9.20
2023-01-04T02:54:44.420Z,9.30
2023-01-04T02:57:51.801Z,9.30
2023-01-04T03:01:03.965Z,9.30
2023-01-04T03:04:20.115Z,9.30
2023-01-04T03:07:17.890Z,9.30
2023-01-04T03:09:58.809Z,9.30
2023-01-04T03:12:36.774Z,9.30
2023-01-04T03:15:18.295Z,9.30
2023-01-04T03:17:55.287Z,9.20
2023-01-04T03:20:32.267Z,9.20
2023-01-04T03:23:28.777Z,9.20
2023-01-04T03:26:45.587Z,9.20
2023-01-04T03:29:44.043Z,9.10
2023-01-04T03:32:39.045Z,9.10
2023-01-04T03:35:23.326Z,9.10
2023-01-04T03:38:35.569Z,9.10
2023-01-04T03:41:31.351Z,9.10
2023-01-04T03:44:38.935Z,9.10
2023-01-04T03:47:39.496Z,9.10
2023-01-04T03:50:26.057Z,9.10
2023-01-04T03:52:59.353Z,9.10
2023-01-04T03:55:32.352Z,9.20
2023-01-04T03:58:05.053Z,9.30
2023-01-04T04:00:37.060Z,9.30
2023-01-04T04:03:09.220Z,9.30
2023-01-04T04:06:02.570Z,9.30
2023-01-04T04:08:34.537Z,9.30
2023-01-04T04:11:24.950Z,9.40
2023-01-04T04:13:57.126Z,9.50
2023-01-04T04:16:29.276Z,9.60
2023-01-04T04:19:08.024Z,9.50
2023-01-04T04:21:40.904Z,9.50
2023-01-04T04:24:24.501Z,9.30
2023-01-04T04:26:56.691Z,9.10
2023-01-04T04:29:28.623Z,9.00
2023-01-04T04:32:00.929Z,8.90
2023-01-04T04:34:32.994Z,8.80
2023-01-04T04:37:04.990Z,8.70
2023-01-04T04:39:36.875Z,8.60
2023-01-04T04:42:09.590Z,8.60
2023-01-04T04:44:41.555Z,8.70
2023-01-04T04:47:13.459Z,8.70
2023-01-04T04:49:45.370Z,8.90
2023-01-04T04:52:17.342Z,8.90
2023-01-04T04:54:49.244Z,9.10
2023-01-04T04:57:21.202Z,9.10
2023-01-04T04:59:53.129Z,9.10
2023-01-04T05:02:25.199Z,9.10
2023-01-04T05:04:57.234Z,9.10
2023-01-04T05:07:29.176Z,9.20
2023-01-04T05:10:01.079Z,9.20
2023-01-04T05:12:57.478Z,9.20
2023-01-04T05:15:38.629Z,9.30
2023-01-04T05:18:12.741Z,9.30
2023-01-04T05:20:45.125Z,9.30
2023-01-04T05:23:19.929Z,9.30
2023-01-04T05:25:58.737Z,9.20
2023-01-04T05:28:31.613Z,9.20
2023-01-04T05:31:03.541Z,9.20
2023-01-04T05:33:35.467Z,9.20
2023-01-04T05:36:07.474Z,9.30
2023-01-04T05:38:39.428Z,9.20
2023-01-04T05:41:29.854Z,9.20
2023-01-04T05:44:02.029Z,9.00
2023-01-04T05:46:34.034Z,8.90
2023-01-04T05:49:06.047Z,8.90
2023-01-04T05:51:37.915Z,8.80
2023-01-04T05:54:09.828Z,8.80
2023-01-04T05:56:41.749Z,8.80
2023-01-04T05:59:13.774Z,8.60
2023-01-04T06:01:45.718Z,8.50
2023-01-04T06:04:17.739Z,8.40
2023-01-04T06:06:49.670Z,8.30
2023-01-04T06:09:21.708Z,8.30
2023-01-04T06:11:54.372Z,8.20
2023-01-04T06:14:26.288Z,8.20
2023-01-04T06:16:58.520Z,8.20
2023-01-04T06:19:30.452Z,8.20
2023-01-04T06:22:02.503Z,8.20
2023-01-04T06:24:34.551Z,8.20
2023-01-04T06:27:06.430Z,8.20
2023-01-04T06:29:38.360Z,8.10
2023-01-04T06:32:10.515Z,8.10
2023-01-04T06:34:42.512Z,8.10
2023-01-04T06:37:14.426Z,8.10
2023-01-04T06:39:46.277Z,8.00
2023-01-04T06:42:36.514Z,8.10
2023-01-04T06:45:08.862Z,8.10
2023-01-04T06:47:41.478Z,8.10
2023-01-04T06:50:13.567Z,8.00
2023-01-04T06:52:45.491Z,7.90
2023-01-04T06:55:17.558Z,7.80
2023-01-04T06:57:49.555Z,7.70
2023-01-04T07:00:21.788Z,7.70
2023-01-04T07:03:15.020Z,7.70
2023-01-04T07:05:46.573Z,7.80
2023-01-04T07:08:18.462Z,8.00
2023-01-04T07:10:50.650Z,8.00
2023-01-04T07:13:22.716Z,7.80
2023-01-04T07:15:54.798Z,7.60
2023-01-04T07:18:26.831Z,7.50
2023-01-04T07:20:58.727Z,7.40
2023-01-04T07:23:30.695Z,7.30
2023-01-04T07:26:03.191Z,7.30
2023-01-04T07:28:55.530Z,7.50
2023-01-04T07:31:27.539Z,7.80
2023-01-04T07:33:59.508Z,8.30
2023-01-04T07:36:31.372Z,8.60
2023-01-04T07:39:03.435Z,9.00
2023-01-04T07:41:35.623Z,9.30
2023-01-04T07:44:08.783Z,9.60
2023-01-04T07:46:42.718Z,9.80
2023-01-04T07:49:18.118Z,10.10
2023-01-04T07:51:50.560Z,10.40
2023-01-04T07:54:24.430Z,10.50
2023-01-04T07:56:56.358Z,10.60
2023-01-04T07:59:28.521Z,10.70
2023-01-04T08:02:00.649Z,10.90
2023-01-04T08:04:35.114Z,11.10
2023-01-04T08:07:07.491Z,11.20
2023-01-04T08:09:39.396Z,11.20
2023-01-04T08:12:11.276Z,11.00
2023-01-04T08:14:43.279Z,10.60
2023-01-04T08:17:15.209Z,10.40
2023-01-04T08:19:47.144Z,10.60
2023-01-04T08:22:19.083Z,10.60
2023-01-04T08:24:50.975Z,10.50
2023-01-04T08:27:22.908Z,10.40
2023-01-04T08:29:54.892Z,10.70
2023-01-04T08:32:26.955Z,11.10
2023-01-04T08:34:58.945Z,11.40
2023-01-04T08:37:32.025Z,11.60
2023-01-04T08:40:04.180Z,11.70
2023-01-04T08:42:36.142Z,11.90
2023-01-04T08:45:09.353Z,12.10
2023-01-04T08:47:41.315Z,12.10
2023-01-04T08:50:16.837Z,12.00
2023-01-04T08:52:48.808Z,11.90
2023-01-04T08:55:23.481Z,12.10
2023-01-04T08:57:55.826Z,12.50
2023-01-04T09:00:27.850Z,12.90
2023-01-04T09:02:59.910Z,13.20
2023-01-04T09:05:32.518Z,13.40
2023-01-04T09:08:04.922Z,13.30
2023-01-04T09:10:41.022Z,13.20
2023-01-04T09:13:12.931Z,13.30
2023-01-04T09:15:44.878Z,13.10
2023-01-04T09:18:33.037Z,13.00
2023-01-04T09:21:06.903Z,12.90
2023-01-04T09:23:39.371Z,12.90
2023-01-04T09:26:22.741Z,12.90
2023-01-04T09:28:56.551Z,13.10
2023-01-04T09:31:29.456Z,13.00
2023-01-04T09:34:17.952Z,13.10
2023-01-04T09:36:50.617Z,13.40
2023-01-04T09:39:24.531Z,13.60
2023-01-04T09:41:58.266Z,13.90
2023-01-04T09:45:21.106Z,14.00
2023-01-04T09:47:39.721Z,14.00
2023-01-04T09:50:27.231Z,13.80
2023-01-04T09:53:39.793Z,13.90
2023-01-04T09:56:23.800Z,14.10
2023-01-04T09:58:57.220Z,14.10
2023-01-04T10:01:46.642Z,14.10
2023-01-04T10:04:28.199Z,14.10
2023-01-04T10:07:05.252Z,14.40
2023-01-04T10:09:37.384Z,14.60
2023-01-04T10:12:18.353Z,14.70
2023-01-04T10:15:05.154Z,14.70
2023-01-04T10:21:29.572Z,14.60
2023-01-04T10:24:00.904Z,14.70
2023-01-04T10:26:41.251Z,15.20
2023-01-04T10:29:26.763Z,15.30
2023-01-04T10:32:12.584Z,15.50
2023-01-04T10:34:46.980Z,15.20
2023-01-04T10:37:25.186Z,16.00
2023-01-04T10:39:58.155Z,17.00
2023-01-04T10:42:37.200Z,17.90
2023-01-04T10:45:23.677Z,18.40
2023-01-04T10:48:16.020Z,19.60
2023-01-04T10:51:05.222Z,20.10
2023-01-04T10:54:13.666Z,21.00
2023-01-04T10:57:05.117Z,22.40
2023-01-04T10:59:46.647Z,22.50
2023-01-04T11:02:33.877Z,21.80
2023-01-04T11:05:47.159Z,18.90
2023-01-04T11:08:28.050Z,17.00
2023-01-04T11:11:30.084Z,15.70
2023-01-04T11:14:03.209Z,14.50
2023-01-04T11:16:35.238Z,13.90
2023-01-04T11:19:09.728Z,13.50
2023-01-04T11:21:58.286Z,13.20
2023-01-04T11:24:33.229Z,13.00
2023-01-04T11:27:11.040Z,13.00
2023-01-04T11:29:54.191Z,13.00
2023-01-04T11:32:47.329Z,13.00
2023-01-04T11:35:44.975Z,12.90
2023-01-04T11:38:28.646Z,12.90
2023-01-04T11:41:06.106Z,12.90
2023-01-04T11:43:39.564Z,12.90
2023-01-04T11:46:24.625Z,13.00
2023-01-04T11:48:57.396Z,12.80
2023-01-04T11:51:29.718Z,12.80
2023-01-04T11:54:15.449Z,12.70
2023-01-04T11:57:17.647Z,12.70
2023-01-04T12:00:13.852Z,12.80
2023-01-04T12:03:02.195Z,12.80
2023-01-04T12:05:34.652Z,12.80
2023-01-04T12:08:07.086Z,13.10
2023-01-04T12:10:39.051Z,13.30
2023-01-04T12:13:11.065Z,13.50
2023-01-04T12:15:58.031Z,13.70
2023-01-04T12:18:36.194Z,13.80
2023-01-04T12:21:19.104Z,13.90
2023-01-04T12:23:52.768Z,13.90
2023-01-04T12:26:24.800Z,13.90
2023-01-04T12:29:23.104Z,13.90
2023-01-04T12:32:17.131Z,14.00
2023-01-04T12:34:49.740Z,14.00
2023-01-04T12:37:42.692Z,14.00
2023-01-04T12:40:45.468Z,14.00
2023-01-04T12:43:26.037Z,14.10
2023-01-04T12:46:47.492Z,14.10
2023-01-04T12:49:28.726Z,14.20
2023-01-04T12:52:38.141Z,14.20
2023-01-04T12:55:34.600Z,14.30
2023-01-04T12:58:43.845Z,14.50
2023-01-04T13:01:29.263Z,14.50
2023-01-04T13:04:23.296Z,14.60
2023-01-04T13:07:00.277Z,14.50
2023-01-04T13:09:33.491Z,14.50
2023-01-04T13:12:18.445Z,14.40
2023-01-04T13:14:54.663Z,14.30
2023-01-04T13:17:28.021Z,14.20
2023-01-04T13:20:01.749Z,14.10
2023-01-04T13:22:36.022Z,13.90
2023-01-04T13:25:14.032Z,13.80
2023-01-04T13:28:02.952Z,13.70
2023-01-04T13:30:39.459Z,13.70
2023-01-04T13:33:28.869Z,13.60
2023-01-04T13:36:04.475Z,13.50
2023-01-04T13:38:39.320Z,13.30
2023-01-04T13:41:23.030Z,13.10
2023-01-04T13:44:11.406Z,13.10
2023-01-04T13:46:43.989Z,13.10
2023-01-04T13:49:17.543Z,13.10
2023-01-04T13:51:49.684Z,13.00
2023-01-04T13:54:24.007Z,13.00
2023-01-04T13:57:09.438Z,12.90
2023-01-04T13:59:41.374Z,13.00
2023-01-04T14:02:18.202Z,13.00
2023-01-04T14:04:51.310Z,12.90
2023-01-04T14:07:25.005Z,12.90
2023-01-04T14:10:00.481Z,12.80
2023-01-04T14:12:32.449Z,12.70
2023-01-04T14:15:25.331Z,12.70
2023-01-04T14:17:57.469Z,12.60
2023-01-04T14:20:34.235Z,12.60
2023-01-04T14:23:35.737Z,12.60
2023-01-04T14:26:07.768Z,12.50
2023-01-04T14:28:46.964Z,12.50
2023-01-04T14:31:25.526Z,12.50
2023-01-04T14:33:57.832Z,12.40
2023-01-04T14:36:32.778Z,12.30
2023-01-04T14:39:05.540Z,12.30
2023-01-04T14:41:41.937Z,12.30
2023-01-04T14:44:22.187Z,12.30
2023-01-04T14:46:56.651Z,12.30
2023-01-04T14:49:29.398Z,12.40
2023-01-04T14:52:03.900Z,12.30
2023-01-04T14:54:39.123Z,12.30
2023-01-04T14:57:11.730Z,12.30
2023-01-04T14:59:45.894Z,12.20
2023-01-04T15:02:19.219Z,12.20
2023-01-04T15:04:51.575Z,12.20
2023-01-04T15:07:33.873Z,12.10
2023-01-04T15:10:18.381Z,12.10
2023-01-04T15:12:50.559Z,12.00
2023-01-04T15:15:23.933Z,12.00
2023-01-04T15:17:55.930Z,11.80
2023-01-04T15:20:27.971Z,11.80
2023-01-04T15:23:00.000Z,11.80
2023-01-04T15:25:31.984Z,11.70
2023-01-04T15:28:04.116Z,11.70
2023-01-04T15:30:36.154Z,11.70
2023-01-04T15:33:08.389Z,11.60
2023-01-04T15:35:40.419Z,11.50
2023-01-04T15:38:18.277Z,11.50
2023-01-04T15:40:51.128Z,11.50
2023-01-04T15:43:23.131Z,11.40
2023-01-04T15:45:55.089Z,11.40
2023-01-04T15:48:26.943Z,11.40
2023-01-04T15:51:03.768Z,11.50
2023-01-04T15:53:36.147Z,11.40
2023-01-04T15:56:12.470Z,11.40
2023-01-04T15:58:44.627Z,11.30
2023-01-04T16:01:16.954Z,11.20
2023-01-04T16:03:53.373Z,11.10
2023-01-04T16:06:26.804Z,11.00
2023-01-04T16:08:59.936Z,10.90
2023-01-04T16:11:32.318Z,10.90
2023-01-04T16:14:04.272Z,11.00
2023-01-04T16:16:36.334Z,11.00
2023-01-04T16:19:09.361Z,10.90
2023-01-04T16:21:41.397Z,10.90
2023-01-04T16:24:44.922Z,10.90
2023-01-04T16:27:06.155Z,11.00
2023-01-04T16:29:38.159Z,10.90
2023-01-04T16:32:10.267Z,11.00
2023-01-04T16:34:42.502Z,11.10
2023-01-04T16:37:14.498Z,11.00
2023-01-04T16:40:05.980Z,11.10
2023-01-04T16:42:39.867Z,11.00
2023-01-04T16:45:12.102Z,11.00
2023-01-04T16:47:44.740Z,11.00
2023-01-04T16:50:16.820Z,11.00
2023-01-04T16:52:48.799Z,11.00
2023-01-04T16:55:24.002Z,11.00
2023-01-04T16:57:57.392Z,11.00
2023-01-04T17:00:29.439Z,10.90
2023-01-04T17:03:01.344Z,10.90
2023-01-04T17:05:41.830Z,10.80
2023-01-04T17:08:13.974Z,10.80
2023-01-04T17:10:48.385Z,10.80
2023-01-04T17:13:20.294Z,10.90
2023-01-04T17:15:52.257Z,11.00
2023-01-04T17:18:24.202Z,11.00
2023-01-04T17:21:16.754Z,11.10
2023-01-04T17:23:53.008Z,11.20
2023-01-04T17:26:29.599Z,11.20
2023-01-04T17:29:02.898Z,11.20
2023-01-04T17:31:40.420Z,11.10
2023-01-04T17:34:22.287Z,11.10
2023-01-04T17:36:56.543Z,11.10
2023-01-04T17:39:32.853Z,11.00
2023-01-04T17:42:05.263Z,11.20
2023-01-04T17:44:38.680Z,11.10
2023-01-04T17:47:10.828Z,11.20
2023-01-04T17:49:43.184Z,11.20
2023-01-04T17:52:22.147Z,11.30
2023-01-04T17:54:56.671Z,11.40
2023-01-04T17:57:31.427Z,11.40
2023-01-04T18:00:04.035Z,11.40
2023-01-04T18:02:37.387Z,11.50
2023-01-04T18:05:10.158Z,11.50
2023-01-04T18:07:45.790Z,11.50
2023-01-04T18:10:26.961Z,11.60
2023-01-04T18:13:11.957Z,11.60
2023-01-04T18:16:02.300Z,11.60
2023-01-04T18:18:38.264Z,11.50
2023-01-04T18:21:28.047Z,11.50
2023-01-04T18:27:21.414Z,11.50
2023-01-04T18:29:48.399Z,11.50
2023-01-04T18:32:20.849Z,11.50
2023-01-04T18:34:53.544Z,11.50
2023-01-04T18:37:27.896Z,11.50
2023-01-04T18:40:00.175Z,11.60
2023-01-04T18:42:32.190Z,11.60
2023-01-04T18:45:05.003Z,11.60
2023-01-04T18:47:37.584Z,11.70
2023-01-04T18:50:10.145Z,11.60
2023-01-04T18:52:42.318Z,11.40
2023-01-04T18:55:15.707Z,11.30
2023-01-04T18:57:47.928Z,11.30
2023-01-04T19:00:20.016Z,11.20
2023-01-04T19:02:52.416Z,11.20
2023-01-04T19:05:27.802Z,11.20
2023-01-04T19:07:59.862Z,11.30
2023-01-04T19:10:32.083Z,11.30
2023-01-04T19:13:05.231Z,11.30
2023-01-04T19:15:44.112Z,11.30
2023-01-04T19:18:19.483Z,11.30
2023-01-04T19:20:51.766Z,11.30
2023-01-04T19:23:23.915Z,11.20
2023-01-04T19:25:56.407Z,11.20
2023-01-04T19:28:28.398Z,11.20
2023-01-04T19:31:09.170Z,11.10
2023-01-04T19:33:41.232Z,11.10
2023-01-04T19:36:14.887Z,11.20
2023-01-04T19:38:47.316Z,11.10
2023-01-04T19:41:31.028Z,11.10
2023-01-04T19:44:08.182Z,11.00
2023-01-04T19:46:41.204Z,10.90
2023-01-04T19:49:15.400Z,10.90
2023-01-04T19:51:55.380Z,10.80
2023-01-04T19:54:28.863Z,10.80
2023-01-04T19:57:01.143Z,10.70
2023-01-04T19:59:33.865Z,10.70
2023-01-04T20:02:06.607Z,10.70
2023-01-04T20:04:48.069Z,10.80
2023-01-04T20:07:21.935Z,10.90
2023-01-04T20:09:54.231Z,10.90
2023-01-04T20:12:26.277Z,10.90
2023-01-04T20:14:58.261Z,10.80
2023-01-04T20:17:31.480Z,10.80
2023-01-04T20:20:03.844Z,10.80
2023-01-04T20:22:36.163Z,10.80
2023-01-04T20:25:08.430Z,10.70
2023-01-04T20:27:42.838Z,10.80
2023-01-04T20:30:16.316Z,10.80
2023-01-04T20:32:50.091Z,10.70
2023-01-04T20:35:28.788Z,10.70
2023-01-04T20:38:06.542Z,10.70
2023-01-04T20:40:43.318Z,10.70
2023-01-04T20:43:34.110Z,10.60
2023-01-04T20:46:14.710Z,10.50
2023-01-04T20:48:47.582Z,10.50
2023-01-04T20:51:22.576Z,10.60
2023-01-04T20:53:57.161Z,10.60
2023-01-04T20:56:31.605Z,10.50
2023-01-04T20:59:05.214Z,10.50
2023-01-04T21:01:37.722Z,10.60
2023-01-04T21:04:09.915Z,10.60
2023-01-04T21:06:42.019Z,10.50
2023-01-04T21:09:14.033Z,10.50
2023-01-04T21:11:46.552Z,10.50
2023-01-04T21:14:18.522Z,10.50
2023-01-04T21:16:51.820Z,10.50
2023-01-04T21:19:24.192Z,10.40
2023-01-04T21:21:57.463Z,10.30
2023-01-04T21:24:34.789Z,10.40
2023-01-04T21:27:08.645Z,10.40
2023-01-04T21:29:40.950Z,10.50
2023-01-04T21:32:13.215Z,10.70
2023-01-04T21:34:45.829Z,10.80
2023-01-04T21:37:17.783Z,10.70
2023-01-04T21:39:49.705Z,10.60
2023-01-04T21:42:21.677Z,10.50
2023-01-04T21:44:53.637Z,10.40
2023-01-04T21:47:25.629Z,10.40
2023-01-04T21:49:57.912Z,10.50
2023-01-04T21:52:29.909Z,10.50
2023-01-04T21:55:02.035Z,10.50
2023-01-04T21:57:37.874Z,10.40
2023-01-04T22:00:12.597Z,10.30
2023-01-04T22:02:45.823Z,10.20
2023-01-04T22:05:18.009Z,10.30
2023-01-04T22:07:49.964Z,10.40
2023-01-04T22:10:23.371Z,10.50
2023-01-04T22:12:55.409Z,10.40
2023-01-04T22:15:27.429Z,10.30
2023-01-04T22:17:59.422Z,10.20
2023-01-04T22:20:31.476Z,10.10
2023-01-04T22:23:03.495Z,10.00
2023-01-04T22:25:35.802Z,9.90
2023-01-04T22:28:07.891Z,9.80
2023-01-04T22:30:41.778Z,9.70
2023-01-04T22:33:16.367Z,9.50
2023-01-04T22:35:48.866Z,9.50
2023-01-04T22:38:20.891Z,9.40
2023-01-04T22:40:52.782Z,9.30
2023-01-04T22:43:24.743Z,9.30
2023-01-04T22:46:00.804Z,9.30
2023-01-04T22:48:33.447Z,9.30
2023-01-04T22:51:07.756Z,9.20
2023-01-04T22:53:40.406Z,9.10
2023-01-04T22:56:19.960Z,9.10
2023-01-04T22:58:55.897Z,9.00
2023-01-04T23:01:30.861Z,8.90
2023-01-04T23:04:03.774Z,8.80
2023-01-04T23:06:35.842Z,8.70
2023-01-04T23:09:08.134Z,8.60
2023-01-04T23:11:41.130Z,8.60
2023-01-04T23:14:16.223Z,8.50
2023-01-04T23:16:48.411Z,8.50
2023-01-04T23:19:20.435Z,8.40
2023-01-04T23:21:52.396Z,8.50
2023-01-04T23:24:24.404Z,8.50
2023-01-04T23:26:56.550Z,8.40
2023-01-04T23:29:29.578Z,8.40
2023-01-04T23:32:01.642Z,8.30
2023-01-04T23:34:33.717Z,8.20
2023-01-04T23:37:05.685Z,8.10
2023-01-04T23:39:37.782Z,8.10
2023-01-04T23:42:09.731Z,8.00
2023-01-04T23:44:43.590Z,7.90
2023-01-04T23:47:18.242Z,7.80
2023-01-04T23:49:50.555Z,7.80
2023-01-04T23:52:22.535Z,7.70
2023-01-04T23:54:54.491Z,7.60
2023-01-04T23:57:26.377Z,7.60
2023-01-04T23:59:58.306Z,7.50
